Ridgeville, Georgia
Current Conditions -  °F | °C
As of 4:55 AM on Saturday 25 Oct 2014 (Local Time) from KBQK Reporting Station
Overcast Overcast  
Wind Chill: 46°   Ceiling: 500
Heat Index: 46°   Visibility: 0.75mi
Dew Point: 45°   Wind: 0mph
Humidity: 93%   Direction: NA
Pressure: 30"   Gusts: NA
Location:  31.5632°N, 81.4638°W
Report Text: KBQK 250855Z AUTO 00000KT 3/4SM VV005 08/07 A3000 RMK AO1 VIS 1/2V2 1/2
Loading
Personal Weather Stations






























Interactive Weather Map
Tropical Storm Tracking
New forecast layout! Learn more

10-Day Weather Forecast

Advertisements
Track Severe Weather on mobile